createdAt,value
2022-09-10T00:00:09.028Z,0.00
2022-09-10T00:01:09.002Z,0.00
2022-09-10T00:02:09.048Z,0.00
2022-09-10T00:03:08.997Z,0.00
2022-09-10T00:04:08.951Z,0.00
2022-09-10T00:05:08.965Z,0.00
2022-09-10T00:06:08.932Z,0.00
2022-09-10T00:07:08.948Z,0.00
2022-09-10T00:08:08.946Z,0.00
2022-09-10T00:09:08.917Z,0.00
2022-09-10T00:10:08.898Z,0.00
2022-09-10T00:11:08.875Z,0.00
2022-09-10T00:12:08.911Z,0.00
2022-09-10T00:13:08.905Z,0.00
2022-09-10T00:14:08.852Z,0.00
2022-09-10T00:15:08.849Z,0.00
2022-09-10T00:16:08.898Z,0.00
2022-09-10T00:17:08.861Z,0.00
2022-09-10T00:18:08.825Z,0.00
2022-09-10T00:19:08.873Z,0.00
2022-09-10T00:20:08.792Z,0.00
2022-09-10T00:21:08.809Z,0.00
2022-09-10T00:22:08.764Z,0.00
2022-09-10T00:23:08.793Z,0.00
2022-09-10T00:24:08.775Z,0.00
2022-09-10T00:25:08.752Z,0.00
2022-09-10T00:26:08.749Z,0.00
2022-09-10T00:27:08.768Z,0.00
2022-09-10T00:28:08.737Z,0.00
2022-09-10T00:29:08.737Z,0.00
2022-09-10T00:30:08.680Z,0.00
2022-09-10T00:31:08.688Z,0.00
2022-09-10T00:32:08.667Z,0.00
2022-09-10T00:33:08.664Z,0.00
2022-09-10T00:34:08.671Z,0.00
2022-09-10T00:35:08.656Z,0.00
2022-09-10T00:36:08.625Z,0.00
2022-09-10T00:37:08.652Z,0.00
2022-09-10T00:38:08.674Z,0.00
2022-09-10T00:39:08.649Z,0.00
2022-09-10T00:40:08.601Z,0.00
2022-09-10T00:41:08.586Z,0.00
2022-09-10T00:42:08.564Z,0.00
2022-09-10T00:43:08.642Z,0.00
2022-09-10T00:44:08.541Z,0.00
2022-09-10T00:45:08.572Z,0.00
2022-09-10T00:46:08.526Z,0.00
2022-09-10T00:47:08.516Z,0.00
2022-09-10T00:48:08.489Z,0.00
2022-09-10T00:49:08.570Z,0.00
2022-09-10T00:50:08.482Z,0.00
2022-09-10T00:51:08.498Z,0.00
2022-09-10T00:52:08.479Z,0.00
2022-09-10T00:53:08.489Z,0.00
2022-09-10T00:54:08.446Z,0.00
2022-09-10T00:55:08.465Z,0.00
2022-09-10T00:56:08.433Z,0.00
2022-09-10T00:57:08.434Z,0.00
2022-09-10T00:58:08.445Z,0.00
2022-09-10T00:59:08.435Z,0.00
2022-09-10T01:00:08.378Z,0.00
2022-09-10T01:01:08.455Z,0.00
2022-09-10T01:02:08.411Z,0.00
2022-09-10T01:03:08.341Z,0.00
2022-09-10T01:04:08.331Z,0.00
2022-09-10T01:05:08.334Z,0.00
2022-09-10T01:06:08.317Z,0.00
2022-09-10T01:07:08.371Z,0.00
2022-09-10T01:08:08.327Z,0.00
2022-09-10T01:09:08.292Z,0.00
2022-09-10T01:10:08.272Z,0.00
2022-09-10T01:11:08.303Z,0.00
2022-09-10T01:12:08.259Z,0.00
2022-09-10T01:13:08.301Z,0.00
2022-09-10T01:14:08.227Z,0.00
2022-09-10T01:15:08.245Z,0.00
2022-09-10T01:16:08.259Z,0.00
2022-09-10T01:17:08.236Z,0.00
2022-09-10T01:18:08.212Z,0.00
2022-09-10T01:19:08.178Z,0.00
2022-09-10T01:20:08.156Z,0.00
2022-09-10T01:21:08.172Z,0.00
2022-09-10T01:22:08.141Z,0.00
2022-09-10T01:23:08.170Z,0.00
2022-09-10T01:24:08.150Z,0.00
2022-09-10T01:25:08.125Z,0.00
2022-09-10T01:26:08.112Z,0.00
2022-09-10T01:27:08.103Z,0.00
2022-09-10T01:28:08.082Z,0.00
2022-09-10T01:29:08.131Z,0.00
2022-09-10T01:30:08.060Z,0.00
2022-09-10T01:31:08.159Z,0.00
2022-09-10T01:32:08.044Z,0.00
2022-09-10T01:33:08.035Z,0.00
2022-09-10T01:34:08.044Z,0.00
2022-09-10T01:35:08.011Z,0.00
2022-09-10T01:36:07.995Z,0.00
2022-09-10T01:37:08.016Z,0.00
2022-09-10T01:38:07.983Z,0.00
2022-09-10T01:39:07.976Z,0.00
2022-09-10T01:40:08.062Z,0.00
2022-09-10T01:41:07.981Z,0.00
2022-09-10T01:42:07.996Z,0.00
2022-09-10T01:43:07.944Z,0.00
2022-09-10T01:44:07.924Z,0.00
2022-09-10T01:45:07.923Z,0.00
2022-09-10T01:46:07.914Z,0.00
2022-09-10T01:47:07.887Z,0.00
2022-09-10T01:48:07.873Z,0.00
2022-09-10T01:49:07.900Z,0.00
2022-09-10T01:50:07.865Z,0.00
2022-09-10T01:51:07.849Z,0.00
2022-09-10T01:52:07.853Z,0.00
2022-09-10T01:53:07.851Z,0.00
2022-09-10T01:54:07.816Z,0.00
2022-09-10T01:55:07.840Z,0.00
2022-09-10T01:56:07.807Z,0.00
2022-09-10T01:57:07.825Z,0.00
2022-09-10T01:58:07.779Z,0.00
2022-09-10T01:59:07.769Z,0.00
2022-09-10T02:00:07.749Z,0.00
2022-09-10T02:01:07.814Z,0.00
2022-09-10T02:02:07.821Z,0.00
2022-09-10T02:03:07.720Z,0.00
2022-09-10T02:04:07.704Z,0.00
2022-09-10T02:05:07.712Z,0.00
2022-09-10T02:06:07.690Z,0.00
2022-09-10T02:07:07.708Z,0.00
2022-09-10T02:08:07.684Z,0.00
2022-09-10T02:09:07.676Z,0.00
2022-09-10T02:10:07.654Z,0.00
2022-09-10T02:11:07.635Z,0.00
2022-09-10T02:12:07.639Z,0.00
2022-09-10T02:13:07.648Z,0.00
2022-09-10T02:14:07.615Z,0.00
2022-09-10T02:15:07.601Z,0.00
2022-09-10T02:16:07.630Z,0.00
2022-09-10T02:17:07.575Z,0.00
2022-09-10T02:18:07.636Z,0.00
2022-09-10T02:19:07.559Z,0.00
2022-09-10T02:20:07.548Z,0.00
2022-09-10T02:21:07.554Z,0.00
2022-09-10T02:22:07.520Z,0.00
2022-09-10T02:23:07.534Z,0.00
2022-09-10T02:24:07.513Z,0.00
2022-09-10T02:25:07.500Z,0.00
2022-09-10T02:26:07.490Z,0.00
2022-09-10T02:27:07.473Z,0.00
2022-09-10T02:28:07.461Z,0.00
2022-09-10T02:29:07.510Z,0.00
2022-09-10T02:30:07.445Z,0.00
2022-09-10T02:31:07.461Z,0.00
2022-09-10T02:32:07.430Z,0.00
2022-09-10T02:33:07.414Z,0.00
2022-09-10T02:34:07.434Z,0.00
2022-09-10T02:35:07.395Z,0.00
2022-09-10T02:36:07.368Z,0.00
2022-09-10T02:37:07.386Z,0.00
2022-09-10T02:38:07.357Z,0.00
2022-09-10T02:39:07.358Z,0.00
2022-09-10T02:40:07.400Z,0.00
2022-09-10T02:41:07.328Z,0.00
2022-09-10T02:42:07.318Z,0.00
2022-09-10T02:43:07.303Z,0.00
2022-09-10T02:44:07.310Z,0.00
2022-09-10T02:45:07.284Z,0.00
2022-09-10T02:46:07.337Z,0.00
2022-09-10T02:47:07.284Z,0.00
2022-09-10T02:48:07.272Z,0.00
2022-09-10T02:49:07.243Z,0.00
2022-09-10T02:50:07.232Z,0.00
2022-09-10T02:51:07.243Z,0.00
2022-09-10T02:52:07.250Z,0.00
2022-09-10T02:53:07.200Z,0.00
2022-09-10T02:54:07.214Z,0.00
2022-09-10T02:55:07.181Z,0.00
2022-09-10T02:56:07.209Z,0.00
2022-09-10T02:57:07.192Z,0.00
2022-09-10T02:58:07.151Z,0.00
2022-09-10T02:59:07.134Z,0.00
2022-09-10T03:00:07.135Z,0.00
2022-09-10T03:01:07.165Z,0.00
2022-09-10T03:02:07.192Z,0.00
2022-09-10T03:03:07.106Z,0.00
2022-09-10T03:04:07.091Z,0.00
2022-09-10T03:05:07.214Z,0.00
2022-09-10T03:06:07.085Z,0.00
2022-09-10T03:07:07.084Z,0.00
2022-09-10T03:08:07.059Z,0.00
2022-09-10T03:09:07.090Z,0.00
2022-09-10T03:10:07.028Z,0.00
2022-09-10T03:11:07.030Z,0.00
2022-09-10T03:12:07.038Z,0.00
2022-09-10T03:13:07.003Z,0.00
2022-09-10T03:14:06.994Z,0.00
2022-09-10T03:15:06.976Z,0.00
2022-09-10T03:16:07.076Z,0.00
2022-09-10T03:17:06.955Z,0.00
2022-09-10T03:18:06.957Z,0.00
2022-09-10T03:19:06.962Z,0.00
2022-09-10T03:20:06.942Z,0.00
2022-09-10T03:21:06.929Z,0.00
2022-09-10T03:22:06.898Z,0.00
2022-09-10T03:23:06.948Z,0.00
2022-09-10T03:24:08.656Z,0.00
2022-09-10T03:25:06.863Z,0.00
2022-09-10T03:26:06.880Z,0.00
2022-09-10T03:27:06.910Z,0.00
2022-09-10T03:28:06.864Z,0.00
2022-09-10T03:29:06.824Z,0.00
2022-09-10T03:30:06.813Z,0.00
2022-09-10T03:31:06.837Z,0.00
2022-09-10T03:32:06.808Z,0.00
2022-09-10T03:33:06.783Z,0.00
2022-09-10T03:34:06.784Z,0.00
2022-09-10T03:35:06.762Z,0.00
2022-09-10T03:36:06.787Z,0.00
2022-09-10T03:37:06.769Z,0.00
2022-09-10T03:38:06.735Z,0.00
2022-09-10T03:39:06.748Z,0.00
2022-09-10T03:40:06.781Z,0.00
2022-09-10T03:41:06.727Z,0.00
2022-09-10T03:42:06.744Z,0.00
2022-09-10T03:43:06.703Z,0.00
2022-09-10T03:44:06.682Z,0.00
2022-09-10T03:45:06.656Z,0.00
2022-09-10T03:46:06.680Z,0.00
2022-09-10T03:47:06.762Z,0.00
2022-09-10T03:48:06.639Z,0.00
2022-09-10T03:49:06.717Z,0.00
2022-09-10T03:50:06.688Z,0.00
2022-09-10T03:51:06.631Z,0.00
2022-09-10T03:52:06.615Z,0.00
2022-09-10T03:53:06.579Z,0.00
2022-09-10T03:54:06.593Z,0.00
2022-09-10T03:55:06.551Z,0.00
2022-09-10T03:56:06.559Z,0.00
2022-09-10T03:57:06.577Z,0.00
2022-09-10T03:58:06.531Z,0.00
2022-09-10T03:59:06.524Z,0.00
2022-09-10T04:00:06.517Z,0.00
2022-09-10T04:01:06.534Z,0.00
2022-09-10T04:02:06.577Z,0.00
2022-09-10T04:03:06.519Z,0.00
2022-09-10T04:04:06.472Z,0.00
2022-09-10T04:05:06.459Z,0.00
2022-09-10T04:06:06.456Z,0.00
2022-09-10T04:07:06.565Z,0.00
2022-09-10T04:08:06.437Z,0.00
2022-09-10T04:09:06.439Z,0.00
2022-09-10T04:10:06.413Z,0.00
2022-09-10T04:11:06.391Z,0.00
2022-09-10T04:12:06.414Z,0.00
2022-09-10T04:13:06.369Z,0.00
2022-09-10T04:14:06.364Z,0.00
2022-09-10T04:15:06.370Z,0.00
2022-09-10T04:16:06.375Z,0.00
2022-09-10T04:17:06.373Z,0.00
2022-09-10T04:18:06.315Z,0.00
2022-09-10T04:19:06.313Z,0.00
2022-09-10T04:20:06.341Z,0.00
2022-09-10T04:21:06.290Z,0.00
2022-09-10T04:22:06.301Z,0.00
2022-09-10T04:23:06.265Z,0.00
2022-09-10T04:24:06.275Z,0.00
2022-09-10T04:25:06.373Z,0.00
2022-09-10T04:26:06.286Z,0.00
2022-09-10T04:27:06.246Z,0.00
2022-09-10T04:28:06.232Z,0.00
2022-09-10T04:29:06.222Z,0.00
2022-09-10T04:30:06.221Z,0.00
2022-09-10T04:31:06.234Z,0.00
2022-09-10T04:32:06.206Z,0.00
2022-09-10T04:33:06.160Z,0.00
2022-09-10T04:34:06.166Z,0.00
2022-09-10T04:35:06.098Z,0.00
2022-09-10T04:36:06.085Z,0.00
2022-09-10T04:37:06.156Z,0.00
2022-09-10T04:38:06.149Z,0.00
2022-09-10T04:39:06.072Z,0.00
2022-09-10T04:40:06.083Z,0.00
2022-09-10T04:41:06.029Z,0.00
2022-09-10T04:42:06.233Z,0.00
2022-09-10T04:43:06.018Z,0.00
2022-09-10T04:44:06.002Z,0.00
2022-09-10T04:45:05.994Z,0.00
2022-09-10T04:46:06.043Z,0.00
2022-09-10T04:47:05.962Z,0.00
2022-09-10T04:48:07.241Z,0.00
2022-09-10T04:49:05.942Z,0.00
2022-09-10T04:50:05.943Z,0.00
2022-09-10T04:51:16.208Z,0.00
2022-09-10T04:52:05.959Z,0.00
2022-09-10T04:53:05.900Z,0.00
2022-09-10T04:54:05.920Z,0.00
2022-09-10T04:55:05.921Z,0.00
2022-09-10T04:56:05.874Z,0.00
2022-09-10T04:57:05.868Z,0.00
2022-09-10T04:58:05.858Z,0.00
2022-09-10T04:59:05.859Z,0.00
2022-09-10T05:00:05.871Z,0.00
2022-09-10T05:01:05.875Z,0.00
2022-09-10T05:02:05.840Z,0.00
2022-09-10T05:03:05.806Z,0.00
2022-09-10T05:04:05.903Z,0.00
2022-09-10T05:05:05.771Z,0.00
2022-09-10T05:06:05.760Z,0.00
2022-09-10T05:07:05.759Z,0.00
2022-09-10T05:08:05.762Z,5.62
2022-09-10T05:09:05.751Z,5.62
2022-09-10T05:10:05.812Z,5.62
2022-09-10T05:11:05.722Z,5.62
2022-09-10T05:12:05.712Z,0.00
2022-09-10T05:13:05.700Z,0.00
2022-09-10T05:14:05.780Z,5.62
2022-09-10T05:15:05.739Z,5.62
2022-09-10T05:16:05.713Z,5.62
2022-09-10T05:17:05.649Z,5.62
2022-09-10T05:18:05.648Z,5.62
2022-09-10T05:19:05.631Z,5.62
2022-09-10T05:20:05.654Z,5.62
2022-09-10T05:21:05.619Z,5.62
2022-09-10T05:22:05.632Z,0.00
2022-09-10T05:23:05.593Z,0.00
2022-09-10T05:24:05.592Z,0.00
2022-09-10T05:25:05.600Z,0.00
2022-09-10T05:26:05.598Z,0.00
2022-09-10T05:27:05.573Z,0.00
2022-09-10T05:28:05.570Z,0.00
2022-09-10T05:29:05.532Z,0.00
2022-09-10T05:30:05.525Z,0.00
2022-09-10T05:31:05.520Z,0.00
2022-09-10T05:32:05.513Z,0.00
2022-09-10T05:33:05.478Z,0.00
2022-09-10T05:34:05.481Z,0.00
2022-09-10T05:35:05.494Z,0.00
2022-09-10T05:36:05.466Z,0.00
2022-09-10T05:37:05.452Z,0.00
2022-09-10T05:38:05.477Z,0.00
2022-09-10T05:39:05.470Z,0.00
2022-09-10T05:40:05.515Z,0.00
2022-09-10T05:41:05.438Z,5.62
2022-09-10T05:42:05.399Z,5.62
2022-09-10T05:43:05.381Z,5.62
2022-09-10T05:44:05.408Z,5.62
2022-09-10T05:45:05.374Z,5.62
2022-09-10T05:46:05.426Z,5.62
2022-09-10T05:47:05.342Z,5.62
2022-09-10T05:48:05.362Z,5.62
2022-09-10T05:49:05.555Z,5.62
2022-09-10T05:50:05.354Z,0.00
2022-09-10T05:51:05.308Z,0.00
2022-09-10T05:52:05.325Z,0.00
2022-09-10T05:53:05.330Z,0.00
2022-09-10T05:54:05.458Z,0.00
2022-09-10T05:55:05.266Z,0.00
2022-09-10T05:56:05.256Z,5.62
2022-09-10T05:57:05.286Z,5.62
2022-09-10T05:58:05.260Z,5.62
2022-09-10T05:59:05.219Z,5.62
2022-09-10T06:00:05.218Z,5.62
2022-09-10T06:01:05.193Z,5.62
2022-09-10T06:02:05.441Z,5.62
2022-09-10T06:03:05.330Z,5.62
2022-09-10T06:04:05.236Z,5.62
2022-09-10T06:05:05.154Z,5.62
2022-09-10T06:06:05.141Z,5.62
2022-09-10T06:07:05.155Z,0.00
2022-09-10T06:08:08.537Z,5.62
2022-09-10T06:09:05.124Z,5.62
2022-09-10T06:10:05.134Z,5.62
2022-09-10T06:11:05.119Z,0.00
2022-09-10T06:12:05.096Z,0.00
2022-09-10T06:13:05.093Z,0.00
2022-09-10T06:14:05.067Z,5.62
2022-09-10T06:15:05.042Z,5.62
2022-09-10T06:16:05.222Z,5.62
2022-09-10T06:17:05.030Z,5.62
2022-09-10T06:18:05.044Z,5.62
2022-09-10T06:19:05.035Z,5.62
2022-09-10T06:20:05.010Z,5.62
2022-09-10T06:21:04.988Z,5.62
2022-09-10T06:22:05.031Z,0.00
2022-09-10T06:23:05.010Z,0.00
2022-09-10T06:24:05.026Z,0.00
2022-09-10T06:25:04.999Z,0.00
2022-09-10T06:26:04.940Z,0.00
2022-09-10T06:27:04.923Z,0.00
2022-09-10T06:28:04.950Z,0.00
2022-09-10T06:29:04.921Z,0.00
2022-09-10T06:30:04.970Z,5.62
2022-09-10T06:31:04.931Z,5.62
2022-09-10T06:32:04.916Z,5.62
2022-09-10T06:33:04.875Z,5.62
2022-09-10T06:34:04.926Z,5.62
2022-09-10T06:35:04.863Z,0.00
2022-09-10T06:36:04.861Z,0.00
2022-09-10T06:37:04.816Z,0.00
2022-09-10T06:38:04.839Z,0.00
2022-09-10T06:39:04.806Z,0.00
2022-09-10T06:40:05.046Z,0.00
2022-09-10T06:41:04.832Z,0.00
2022-09-10T06:42:04.776Z,0.00
2022-09-10T06:43:04.793Z,0.00
2022-09-10T06:44:04.756Z,0.00
2022-09-10T06:45:04.726Z,0.00
2022-09-10T06:46:04.869Z,0.00
2022-09-10T06:47:55.509Z,5.62
2022-09-10T06:48:48.390Z,5.62
2022-09-10T06:49:04.718Z,5.62
2022-09-10T06:50:04.700Z,5.62
2022-09-10T06:51:04.695Z,5.62
2022-09-10T06:52:04.695Z,5.62
2022-09-10T06:53:04.733Z,5.62
2022-09-10T06:54:04.710Z,5.62
2022-09-10T06:55:04.649Z,5.62
2022-09-10T06:56:04.801Z,5.62
2022-09-10T06:57:04.609Z,11.25
2022-09-10T06:58:04.608Z,11.25
2022-09-10T06:59:04.591Z,11.25
2022-09-10T07:00:04.896Z,11.25
2022-09-10T07:01:04.612Z,11.25
2022-09-10T07:02:04.646Z,11.25
2022-09-10T07:03:04.556Z,11.25
2022-09-10T07:04:04.539Z,11.25
2022-09-10T07:05:04.554Z,11.25
2022-09-10T07:06:04.524Z,11.25
2022-09-10T07:07:04.528Z,11.25
2022-09-10T07:08:04.491Z,16.88
2022-09-10T07:09:04.501Z,16.88
2022-09-10T07:10:04.515Z,16.88
2022-09-10T07:11:04.483Z,16.88
2022-09-10T07:12:04.469Z,16.88
2022-09-10T07:13:04.462Z,16.88
2022-09-10T07:14:04.447Z,16.88
2022-09-10T07:15:04.426Z,16.88
2022-09-10T07:16:04.565Z,16.88
2022-09-10T07:17:04.435Z,16.88
2022-09-10T07:18:04.386Z,16.88
2022-09-10T07:19:04.391Z,16.88
2022-09-10T07:20:04.392Z,16.88
2022-09-10T07:21:04.386Z,16.88
2022-09-10T07:22:04.498Z,16.88
2022-09-10T07:23:04.512Z,16.88
2022-09-10T07:24:04.322Z,16.88
2022-09-10T07:25:04.331Z,16.88
2022-09-10T07:26:04.332Z,16.88
2022-09-10T07:27:04.337Z,11.25
2022-09-10T07:28:04.301Z,11.25
2022-09-10T07:29:04.295Z,11.25
2022-09-10T07:30:04.397Z,11.25
2022-09-10T07:31:04.371Z,11.25
2022-09-10T07:32:04.459Z,16.88
2022-09-10T07:33:04.457Z,16.88
2022-09-10T07:34:04.240Z,16.88
2022-09-10T07:35:04.278Z,16.88
2022-09-10T07:36:04.214Z,16.88
2022-09-10T07:37:04.229Z,16.88
2022-09-10T07:38:04.182Z,16.88
2022-09-10T07:39:04.188Z,16.88
2022-09-10T07:40:04.211Z,16.88
2022-09-10T07:41:04.166Z,16.88
2022-09-10T07:42:04.394Z,16.88
2022-09-10T07:43:04.166Z,16.88
2022-09-10T07:44:04.114Z,16.88
2022-09-10T07:45:04.116Z,22.50
2022-09-10T07:46:04.529Z,22.50
2022-09-10T07:47:04.108Z,22.50
2022-09-10T07:48:04.071Z,22.50
2022-09-10T07:49:04.080Z,22.50
2022-09-10T07:50:04.075Z,22.50
2022-09-10T07:51:04.045Z,22.50
2022-09-10T07:52:04.139Z,22.50
2022-09-10T07:53:04.193Z,22.50
2022-09-10T07:54:04.036Z,28.12
2022-09-10T07:55:04.035Z,28.12
2022-09-10T07:56:03.995Z,28.12
2022-09-10T07:57:04.133Z,39.38
2022-09-10T07:58:04.003Z,39.38
2022-09-10T07:59:03.977Z,33.75
2022-09-10T08:00:04.033Z,33.75
2022-09-10T08:01:04.566Z,33.75
2022-09-10T08:02:03.986Z,33.75
2022-09-10T08:03:03.963Z,39.38
2022-09-10T08:04:05.316Z,39.38
2022-09-10T08:05:04.008Z,45.00
2022-09-10T08:06:03.936Z,45.00
2022-09-10T08:07:03.899Z,50.62
2022-09-10T08:08:04.111Z,50.62
2022-09-10T08:09:03.864Z,56.25
2022-09-10T08:10:03.838Z,50.62
2022-09-10T08:11:06.463Z,56.25
2022-09-10T08:12:03.883Z,56.25
2022-09-10T08:13:03.846Z,45.00
2022-09-10T08:14:03.813Z,50.62
2022-09-10T08:15:03.807Z,50.62
2022-09-10T08:16:03.819Z,45.00
2022-09-10T08:17:03.797Z,45.00
2022-09-10T08:18:03.847Z,45.00
2022-09-10T08:19:03.775Z,39.38
2022-09-10T08:20:03.732Z,39.38
2022-09-10T08:21:03.801Z,39.38
2022-09-10T08:22:03.738Z,39.38
2022-09-10T08:23:03.777Z,39.38
2022-09-10T08:24:03.704Z,39.38
2022-09-10T08:25:03.716Z,45.00
2022-09-10T08:26:03.676Z,39.38
2022-09-10T08:27:04.054Z,39.38
2022-09-10T08:28:03.657Z,33.75
2022-09-10T08:29:03.672Z,33.75
2022-09-10T08:30:03.719Z,45.00
2022-09-10T08:31:03.663Z,50.62
2022-09-10T08:32:03.648Z,39.38
2022-09-10T08:33:03.650Z,39.38
2022-09-10T08:34:03.593Z,50.62
2022-09-10T08:35:03.626Z,50.62
2022-09-10T08:36:03.562Z,45.00
2022-09-10T08:37:03.619Z,45.00
2022-09-10T08:38:03.645Z,50.62
2022-09-10T08:39:08.070Z,50.62
2022-09-10T08:40:03.627Z,45.00
2022-09-10T08:41:03.573Z,39.38
2022-09-10T08:42:03.519Z,50.62
2022-09-10T08:43:03.569Z,50.62
2022-09-10T08:44:03.518Z,45.00
2022-09-10T08:45:03.485Z,45.00
2022-09-10T08:46:03.508Z,39.38
2022-09-10T08:47:03.505Z,39.38
2022-09-10T08:48:03.453Z,33.75
2022-09-10T08:49:03.440Z,28.12
2022-09-10T08:50:03.432Z,33.75
2022-09-10T08:51:03.434Z,33.75
2022-09-10T08:52:03.401Z,28.12
2022-09-10T08:53:03.488Z,33.75
2022-09-10T08:54:03.418Z,33.75
2022-09-10T08:55:03.430Z,45.00
2022-09-10T08:56:03.375Z,56.25
2022-09-10T08:57:03.389Z,56.25
2022-09-10T08:58:03.396Z,56.25
2022-09-10T08:59:03.337Z,56.25
2022-09-10T09:00:03.329Z,67.50
2022-09-10T09:01:03.357Z,73.12
2022-09-10T09:02:03.472Z,95.62
2022-09-10T09:03:03.385Z,78.75
2022-09-10T09:04:06.207Z,67.50
2022-09-10T09:05:03.366Z,73.12
2022-09-10T09:06:03.255Z,67.50
2022-09-10T09:07:03.293Z,84.38
2022-09-10T09:08:03.252Z,84.38
2022-09-10T09:09:03.245Z,78.75
2022-09-10T09:10:03.217Z,67.50
2022-09-10T09:11:03.225Z,78.75
2022-09-10T09:12:03.193Z,84.38
2022-09-10T09:13:03.214Z,90.00
2022-09-10T09:14:03.226Z,90.00
2022-09-10T09:15:08.211Z,95.62
2022-09-10T09:16:03.228Z,84.38
2022-09-10T09:17:03.161Z,73.12
2022-09-10T09:18:03.173Z,67.50
2022-09-10T09:19:03.198Z,73.12
2022-09-10T09:20:03.137Z,78.75
2022-09-10T09:21:03.287Z,90.00
2022-09-10T09:22:03.106Z,78.75
2022-09-10T09:23:03.132Z,84.38
2022-09-10T09:24:13.052Z,90.00
2022-09-10T09:25:03.092Z,101.25
2022-09-10T09:26:03.066Z,101.25
2022-09-10T09:27:03.056Z,106.88
2022-09-10T09:28:03.084Z,112.50
2022-09-10T09:29:03.060Z,112.50
2022-09-10T09:30:03.014Z,112.50
2022-09-10T09:31:06.366Z,106.88
2022-09-10T09:32:02.995Z,106.88
2022-09-10T09:33:02.996Z,101.25
2022-09-10T09:34:02.979Z,95.62
2022-09-10T09:35:02.969Z,95.62
2022-09-10T09:36:02.941Z,84.38
2022-09-10T09:37:02.943Z,73.12
2022-09-10T09:38:02.940Z,73.12
2022-09-10T09:39:02.932Z,73.12
2022-09-10T09:40:02.956Z,67.50
2022-09-10T09:41:02.905Z,73.12
2022-09-10T09:42:02.891Z,95.62
2022-09-10T09:43:02.881Z,101.25
2022-09-10T09:44:02.937Z,101.25
2022-09-10T09:45:02.859Z,95.62
2022-09-10T09:46:02.910Z,101.25
2022-09-10T09:47:02.838Z,101.25
2022-09-10T09:48:02.827Z,95.62
2022-09-10T09:49:02.822Z,90.00
2022-09-10T09:50:02.826Z,84.38
2022-09-10T09:51:02.800Z,78.75
2022-09-10T09:52:02.774Z,73.12
2022-09-10T09:53:02.778Z,73.12
2022-09-10T09:54:34.439Z,90.00
2022-09-10T09:55:14.195Z,101.25
2022-09-10T09:56:02.780Z,95.62
2022-09-10T09:57:02.737Z,78.75
2022-09-10T09:58:02.711Z,78.75
2022-09-10T09:59:02.731Z,90.00
2022-09-10T10:00:02.709Z,112.50
2022-09-10T10:01:02.759Z,106.88
2022-09-10T10:02:02.710Z,101.25
2022-09-10T10:03:02.796Z,90.00
2022-09-10T10:04:02.648Z,84.38
2022-09-10T10:05:02.662Z,67.50
2022-09-10T10:06:02.640Z,67.50
2022-09-10T10:07:02.628Z,61.88
2022-09-10T10:08:02.599Z,56.25
2022-09-10T10:09:02.610Z,56.25
2022-09-10T10:10:02.611Z,56.25
2022-09-10T10:11:02.610Z,50.62
2022-09-10T10:12:02.558Z,73.12
2022-09-10T10:13:02.580Z,90.00
2022-09-10T10:14:02.550Z,90.00
2022-09-10T10:15:02.553Z,78.75
2022-09-10T10:16:02.535Z,67.50
2022-09-10T10:17:02.534Z,56.25
2022-09-10T10:18:02.509Z,50.62
2022-09-10T10:19:02.522Z,50.62
2022-09-10T10:20:02.540Z,50.62
2022-09-10T10:21:02.505Z,45.00
2022-09-10T10:22:02.536Z,45.00
2022-09-10T10:23:02.456Z,45.00
2022-09-10T10:24:02.453Z,39.38
2022-09-10T10:25:02.504Z,33.75
2022-09-10T10:26:02.426Z,28.12
2022-09-10T10:27:02.421Z,33.75
2022-09-10T10:28:02.391Z,33.75
2022-09-10T10:29:02.397Z,33.75
2022-09-10T10:30:02.370Z,33.75
2022-09-10T10:31:02.411Z,33.75
2022-09-10T10:32:05.589Z,33.75
2022-09-10T10:33:02.403Z,33.75
2022-09-10T10:34:02.330Z,33.75
2022-09-10T10:35:02.351Z,33.75
2022-09-10T10:36:02.347Z,33.75
2022-09-10T10:37:02.307Z,33.75
2022-09-10T10:38:02.362Z,33.75
2022-09-10T10:39:02.281Z,33.75
2022-09-10T10:40:02.300Z,33.75
2022-09-10T10:41:02.386Z,33.75
2022-09-10T10:42:02.261Z,33.75
2022-09-10T10:43:02.244Z,33.75
2022-09-10T10:44:02.220Z,33.75
2022-09-10T10:45:02.225Z,39.38
2022-09-10T10:46:02.227Z,39.38
2022-09-10T10:47:02.200Z,39.38
2022-09-10T10:48:02.179Z,33.75
2022-09-10T10:49:05.099Z,33.75
2022-09-10T10:50:02.150Z,33.75
2022-09-10T10:51:02.175Z,33.75
2022-09-10T10:52:02.127Z,33.75
2022-09-10T10:53:02.132Z,28.12
2022-09-10T10:54:02.112Z,28.12
2022-09-10T10:55:02.162Z,28.12
2022-09-10T10:56:02.088Z,28.12
2022-09-10T10:57:02.095Z,28.12
2022-09-10T10:58:02.076Z,28.12
2022-09-10T10:59:02.075Z,28.12
2022-09-10T11:00:02.098Z,28.12
2022-09-10T11:01:02.094Z,28.12
2022-09-10T11:02:02.102Z,28.12
2022-09-10T11:03:02.034Z,22.50
2022-09-10T11:04:02.018Z,22.50
2022-09-10T11:05:02.051Z,22.50
2022-09-10T11:06:01.981Z,28.12
2022-09-10T11:07:01.994Z,28.12
2022-09-10T11:08:01.961Z,28.12
2022-09-10T11:09:01.994Z,28.12
2022-09-10T11:10:01.957Z,28.12
2022-09-10T11:11:01.955Z,28.12
2022-09-10T11:12:01.938Z,22.50
2022-09-10T11:13:01.976Z,22.50
2022-09-10T11:14:01.895Z,22.50
2022-09-10T11:15:01.897Z,22.50
2022-09-10T11:16:01.929Z,22.50
2022-09-10T11:17:01.909Z,22.50
2022-09-10T11:18:01.881Z,22.50
2022-09-10T11:19:01.850Z,22.50
2022-09-10T11:20:24.707Z,22.50
2022-09-10T11:21:01.872Z,22.50
2022-09-10T11:22:01.829Z,22.50
2022-09-10T11:23:01.823Z,22.50
2022-09-10T11:24:01.819Z,28.12
2022-09-10T11:25:01.789Z,28.12
2022-09-10T11:26:01.824Z,28.12
2022-09-10T11:27:01.891Z,28.12
2022-09-10T11:28:01.837Z,28.12
2022-09-10T11:29:01.774Z,28.12
2022-09-10T11:30:01.836Z,22.50
2022-09-10T11:31:01.802Z,28.12
2022-09-10T11:32:01.744Z,28.12
2022-09-10T11:33:01.718Z,28.12
2022-09-10T11:34:01.700Z,28.12
2022-09-10T11:35:01.721Z,28.12
2022-09-10T11:36:01.697Z,28.12
2022-09-10T11:37:01.783Z,28.12
2022-09-10T11:38:01.672Z,28.12
2022-09-10T11:39:01.644Z,28.12
2022-09-10T11:40:01.709Z,28.12
2022-09-10T11:41:01.684Z,28.12
2022-09-10T11:42:01.647Z,28.12
2022-09-10T11:43:01.604Z,28.12
2022-09-10T11:44:01.621Z,28.12
2022-09-10T11:45:01.595Z,28.12
2022-09-10T11:46:01.614Z,33.75
2022-09-10T11:47:01.644Z,33.75
2022-09-10T11:48:01.584Z,33.75
2022-09-10T11:49:01.558Z,33.75
2022-09-10T11:50:01.539Z,39.38
2022-09-10T11:51:01.549Z,39.38
2022-09-10T11:52:01.549Z,39.38
2022-09-10T11:53:01.500Z,39.38
2022-09-10T11:54:01.749Z,45.00
2022-09-10T11:55:01.480Z,45.00
2022-09-10T11:56:01.513Z,45.00
2022-09-10T11:57:01.581Z,45.00
2022-09-10T11:58:01.467Z,39.38
2022-09-10T11:59:01.509Z,39.38
2022-09-10T12:00:01.473Z,33.75
2022-09-10T12:01:01.439Z,33.75
2022-09-10T12:02:01.480Z,39.38
2022-09-10T12:03:01.424Z,39.38
2022-09-10T12:04:01.472Z,39.38
2022-09-10T12:05:01.406Z,33.75
2022-09-10T12:06:01.383Z,33.75
2022-09-10T12:07:01.374Z,33.75
2022-09-10T12:08:01.424Z,39.38
2022-09-10T12:09:01.339Z,39.38
2022-09-10T12:10:01.517Z,45.00
2022-09-10T12:11:01.337Z,50.62
2022-09-10T12:12:01.319Z,45.00
2022-09-10T12:13:01.386Z,50.62
2022-09-10T12:14:01.330Z,50.62
2022-09-10T12:15:01.292Z,50.62
2022-09-10T12:16:01.323Z,50.62
2022-09-10T12:17:01.263Z,50.62
2022-09-10T12:18:01.302Z,50.62
2022-09-10T12:19:01.263Z,56.25
2022-09-10T12:20:01.266Z,56.25
2022-09-10T12:21:01.219Z,50.62
2022-09-10T12:22:01.228Z,56.25
2022-09-10T12:23:01.301Z,56.25
2022-09-10T12:24:01.203Z,56.25
2022-09-10T12:25:01.213Z,56.25
2022-09-10T12:26:01.187Z,56.25
2022-09-10T12:27:01.172Z,56.25
2022-09-10T12:28:01.205Z,61.88
2022-09-10T12:29:01.159Z,67.50
2022-09-10T12:30:01.168Z,61.88
2022-09-10T12:31:01.162Z,67.50
2022-09-10T12:32:01.139Z,67.50
2022-09-10T12:33:01.161Z,61.88
2022-09-10T12:34:01.130Z,61.88
2022-09-10T12:35:01.097Z,56.25
2022-09-10T12:36:01.102Z,56.25
2022-09-10T12:37:01.111Z,61.88
2022-09-10T12:38:01.107Z,50.62
2022-09-10T12:39:01.034Z,50.62
2022-09-10T12:40:01.096Z,45.00
2022-09-10T12:41:01.026Z,45.00
2022-09-10T12:42:01.048Z,45.00
2022-09-10T12:43:01.005Z,45.00
2022-09-10T12:44:01.030Z,50.62
2022-09-10T12:45:00.985Z,50.62
2022-09-10T12:46:01.012Z,50.62
2022-09-10T12:47:00.956Z,45.00
2022-09-10T12:48:00.967Z,39.38
2022-09-10T12:49:00.973Z,39.38
2022-09-10T12:50:00.925Z,33.75
2022-09-10T12:51:00.916Z,28.12
2022-09-10T12:52:00.912Z,22.50
2022-09-10T12:53:00.889Z,22.50
2022-09-10T12:54:00.904Z,22.50
2022-09-10T12:55:00.893Z,22.50
2022-09-10T12:56:00.871Z,22.50
2022-09-10T12:57:00.853Z,22.50
2022-09-10T12:58:00.998Z,22.50
2022-09-10T12:59:00.885Z,22.50
2022-09-10T13:00:00.967Z,28.12
2022-09-10T13:01:00.819Z,33.75
2022-09-10T13:02:00.913Z,33.75
2022-09-10T13:03:00.799Z,45.00
2022-09-10T13:04:00.823Z,56.25
2022-09-10T13:05:00.782Z,50.62